createdAt,value
2022-10-11T00:03:01.873Z,6.89
2022-10-11T00:06:05.895Z,6.88
2022-10-11T00:09:08.492Z,6.88
2022-10-11T00:12:10.487Z,6.88
2022-10-11T00:15:19.258Z,6.91
2022-10-11T00:18:21.970Z,6.88
2022-10-11T00:21:23.846Z,6.85
2022-10-11T00:24:25.563Z,6.86
2022-10-11T00:27:27.494Z,6.82
2022-10-11T00:30:29.204Z,6.76
2022-10-11T00:33:30.971Z,6.80
2022-10-11T00:36:32.722Z,6.77
2022-10-11T00:39:34.465Z,6.79
2022-10-11T00:42:36.196Z,6.80
2022-10-11T00:45:37.812Z,6.81
2022-10-11T00:48:46.150Z,6.86
2022-10-11T00:51:54.148Z,6.88
2022-10-11T00:54:58.184Z,6.87
2022-10-11T00:58:00.152Z,6.91
2022-10-11T01:01:02.708Z,6.95
2022-10-11T01:04:05.104Z,7.02
2022-10-11T01:07:07.002Z,7.04
2022-10-11T01:10:10.517Z,7.11
2022-10-11T01:13:36.780Z,7.21
2022-10-11T01:16:52.675Z,7.21
2022-10-11T01:20:06.536Z,7.28
2022-10-11T01:23:17.078Z,7.26
2022-10-11T01:26:40.543Z,7.28
2022-10-11T01:29:57.334Z,7.28
2022-10-11T01:33:27.404Z,7.33
2022-10-11T01:36:40.423Z,7.28
2022-10-11T01:39:55.524Z,7.37
2022-10-11T01:42:57.595Z,7.35
2022-10-11T01:46:02.311Z,7.39
2022-10-11T01:49:05.606Z,7.40
2022-10-11T01:52:08.050Z,7.39
2022-10-11T01:55:29.858Z,7.43
2022-10-11T01:59:00.834Z,7.45
2022-10-11T02:02:03.035Z,7.43
2022-10-11T02:05:29.322Z,7.52
2022-10-11T02:08:42.889Z,7.47
2022-10-11T02:11:44.691Z,7.42
2022-10-11T02:14:50.960Z,7.44
2022-10-11T02:17:57.964Z,7.43
2022-10-11T02:21:03.831Z,7.42
2022-10-11T02:24:23.368Z,7.46
2022-10-11T02:27:30.031Z,7.43
2022-10-11T02:30:32.713Z,7.40
2022-10-11T02:33:42.867Z,7.45
2022-10-11T02:37:09.264Z,7.48
2022-10-11T02:40:15.658Z,7.40
2022-10-11T02:43:31.223Z,7.44
2022-10-11T02:46:34.543Z,7.39
2022-10-11T02:49:36.789Z,7.31
2022-10-11T02:52:38.642Z,7.27
2022-10-11T02:55:40.503Z,7.21
2022-10-11T02:58:42.243Z,7.16
2022-10-11T03:01:44.084Z,7.10
2022-10-11T03:04:47.099Z,7.07
2022-10-11T03:07:48.819Z,6.97
2022-10-11T03:10:50.493Z,6.91
2022-10-11T03:13:52.543Z,6.84
2022-10-11T03:16:54.308Z,6.79
2022-10-11T03:19:55.998Z,6.74
2022-10-11T03:22:57.724Z,6.68
2022-10-11T03:25:59.979Z,6.68
2022-10-11T03:29:01.680Z,6.63
2022-10-11T03:32:05.983Z,6.56
2022-10-11T03:35:08.050Z,6.53
2022-10-11T03:38:13.162Z,6.52
2022-10-11T03:41:14.913Z,6.43
2022-10-11T03:44:17.123Z,6.40
2022-10-11T03:47:19.107Z,6.39
2022-10-11T03:50:20.791Z,6.38
2022-10-11T03:53:22.495Z,6.40
2022-10-11T03:56:24.193Z,6.43
2022-10-11T03:59:25.965Z,6.46
2022-10-11T04:02:27.733Z,6.45
2022-10-11T04:05:30.840Z,6.42
2022-10-11T04:08:32.562Z,6.36
2022-10-11T04:11:34.326Z,6.31
2022-10-11T04:14:36.089Z,6.30
2022-10-11T04:17:37.877Z,6.31
2022-10-11T04:20:39.614Z,6.27
2022-10-11T04:23:41.474Z,6.26
2022-10-11T04:26:44.284Z,6.29
2022-10-11T04:29:45.990Z,6.28
2022-10-11T04:32:48.197Z,6.33
2022-10-11T04:35:53.923Z,6.37
2022-10-11T04:38:56.280Z,6.35
2022-10-11T04:41:58.061Z,6.39
2022-10-11T04:44:59.826Z,6.41
2022-10-11T04:48:01.599Z,6.42
2022-10-11T04:51:03.349Z,6.39
2022-10-11T04:54:05.174Z,6.38
2022-10-11T04:57:07.499Z,6.39
2022-10-11T05:00:10.139Z,6.37
2022-10-11T05:03:11.901Z,6.34
2022-10-11T05:06:14.215Z,6.34
2022-10-11T05:09:16.218Z,6.34
2022-10-11T05:12:18.030Z,6.31
2022-10-11T05:15:19.814Z,6.29
2022-10-11T05:18:21.570Z,6.27
2022-10-11T05:21:26.022Z,6.28
2022-10-11T05:24:27.809Z,6.23
2022-10-11T05:27:29.508Z,6.22
2022-10-11T05:30:31.393Z,6.23
2022-10-11T05:33:33.977Z,6.24
2022-10-11T05:36:35.704Z,6.26
2022-10-11T05:39:37.411Z,6.34
2022-10-11T05:42:39.146Z,6.38
2022-10-11T05:45:42.985Z,6.54
2022-10-11T05:48:44.741Z,6.61
2022-10-11T05:51:46.557Z,6.79
2022-10-11T05:54:48.710Z,6.99
2022-10-11T05:57:57.298Z,7.18
2022-10-11T06:00:59.074Z,7.28
2022-10-11T06:04:01.036Z,7.43
2022-10-11T06:07:03.803Z,7.72
2022-10-11T06:10:06.786Z,8.04
2022-10-11T06:13:09.631Z,8.24
2022-10-11T06:16:11.913Z,8.33
2022-10-11T06:19:13.669Z,8.41
2022-10-11T06:22:15.602Z,8.45
2022-10-11T06:25:17.471Z,8.67
2022-10-11T06:28:22.983Z,8.83
2022-10-11T06:31:24.902Z,8.90
2022-10-11T06:34:26.780Z,9.09
2022-10-11T06:37:29.561Z,9.03
2022-10-11T06:40:31.341Z,9.23
2022-10-11T06:43:32.988Z,9.30
2022-10-11T06:46:34.784Z,9.35
2022-10-11T06:49:36.484Z,9.50
2022-10-11T06:52:38.190Z,9.53
2022-10-11T06:55:39.864Z,9.49
2022-10-11T06:58:41.719Z,9.58
2022-10-11T07:01:43.532Z,9.56
2022-10-11T07:04:45.282Z,9.55
2022-10-11T07:07:46.967Z,9.71
2022-10-11T07:10:48.711Z,9.84
2022-10-11T07:13:52.471Z,10.01
2022-10-11T07:16:54.443Z,10.14
2022-10-11T07:19:56.137Z,10.12
2022-10-11T07:22:57.869Z,10.03
2022-10-11T07:25:59.651Z,9.90
2022-10-11T07:29:01.502Z,9.89
2022-10-11T07:32:03.330Z,10.00
2022-10-11T07:35:05.563Z,10.11
2022-10-11T07:38:08.344Z,10.22
2022-10-11T07:41:10.411Z,10.33
2022-10-11T07:44:12.135Z,10.37
2022-10-11T07:47:13.915Z,10.33
2022-10-11T07:50:15.878Z,10.36
2022-10-11T07:53:17.636Z,10.49
2022-10-11T07:56:22.786Z,10.56
2022-10-11T07:59:24.680Z,10.36
2022-10-11T08:02:26.671Z,10.42
2022-10-11T08:05:28.451Z,10.55
2022-10-11T08:08:31.153Z,10.70
2022-10-11T08:11:35.991Z,10.79
2022-10-11T08:14:37.741Z,10.80
2022-10-11T08:17:39.515Z,10.72
2022-10-11T08:20:41.358Z,10.87
2022-10-11T08:23:43.147Z,10.92
2022-10-11T08:26:44.902Z,11.22
2022-10-11T08:29:46.776Z,11.18
2022-10-11T08:32:48.477Z,11.15
2022-10-11T08:35:50.602Z,11.21
2022-10-11T08:38:52.349Z,11.22
2022-10-11T08:42:02.948Z,11.52
2022-10-11T08:45:11.855Z,11.66
2022-10-11T08:48:22.236Z,11.78
2022-10-11T08:51:43.793Z,11.95
2022-10-11T08:55:14.177Z,12.00
2022-10-11T08:58:20.437Z,11.97
2022-10-11T09:01:27.294Z,11.95
2022-10-11T09:04:29.297Z,12.00
2022-10-11T09:07:49.619Z,12.27
2022-10-11T09:11:10.027Z,12.38
2022-10-11T09:14:50.664Z,12.38
2022-10-11T09:17:58.180Z,12.45
2022-10-11T09:21:30.580Z,12.54
2022-10-11T09:24:52.516Z,12.77
2022-10-11T09:28:03.138Z,12.91
2022-10-11T09:31:10.479Z,13.00
2022-10-11T09:34:15.899Z,13.13
2022-10-11T09:37:37.986Z,13.11
2022-10-11T09:41:05.054Z,13.27
2022-10-11T09:44:08.510Z,13.37
2022-10-11T09:47:23.340Z,13.54
2022-10-11T09:50:29.762Z,13.61
2022-10-11T09:53:50.245Z,13.68
2022-10-11T09:56:52.026Z,13.75
2022-10-11T10:00:04.912Z,13.84
2022-10-11T10:03:28.040Z,13.78
2022-10-11T10:06:29.752Z,13.95
2022-10-11T10:09:31.646Z,14.17
2022-10-11T10:12:33.419Z,14.23
2022-10-11T10:15:37.042Z,14.30
2022-10-11T10:19:03.749Z,14.39
2022-10-11T10:22:05.865Z,14.39
2022-10-11T10:25:20.281Z,14.60
2022-10-11T10:28:25.381Z,14.67
2022-10-11T10:32:13.240Z,14.76
2022-10-11T10:35:25.424Z,14.86
2022-10-11T10:38:35.546Z,14.76
2022-10-11T10:41:37.319Z,14.94
2022-10-11T10:44:39.113Z,15.14
2022-10-11T10:48:28.787Z,14.66
2022-10-11T10:52:06.002Z,14.67
2022-10-11T10:55:32.122Z,14.81
2022-10-11T10:58:42.860Z,15.20
2022-10-11T11:02:35.028Z,15.42
2022-10-11T11:05:43.812Z,15.49
2022-10-11T11:09:03.329Z,15.45
2022-10-11T11:12:46.021Z,15.68
2022-10-11T11:16:15.968Z,15.67
2022-10-11T11:19:20.798Z,15.98
2022-10-11T11:22:48.156Z,15.74
2022-10-11T11:25:56.105Z,15.77
2022-10-11T11:29:30.616Z,15.82
2022-10-11T11:33:00.371Z,15.87
2022-10-11T11:36:11.194Z,15.85
2022-10-11T11:39:19.822Z,16.07
2022-10-11T11:42:30.178Z,15.84
2022-10-11T11:45:55.417Z,16.03
2022-10-11T11:49:00.377Z,16.04
2022-10-11T11:52:05.061Z,16.13
2022-10-11T11:55:26.103Z,16.08
2022-10-11T11:58:39.017Z,16.21
2022-10-11T12:01:56.597Z,16.13
2022-10-11T12:04:58.886Z,16.17
2022-10-11T12:08:23.042Z,15.97
2022-10-11T12:11:34.531Z,15.92
2022-10-11T12:14:40.751Z,15.98
2022-10-11T12:17:54.722Z,15.99
2022-10-11T12:21:17.020Z,15.89
2022-10-11T12:24:24.623Z,15.97
2022-10-11T12:27:39.892Z,16.01
2022-10-11T12:30:45.040Z,15.91
2022-10-11T12:33:46.724Z,15.86
2022-10-11T12:36:50.637Z,16.00
2022-10-11T12:39:52.334Z,15.98
2022-10-11T12:43:25.920Z,16.21
2022-10-11T12:46:31.241Z,16.03
2022-10-11T12:49:36.402Z,16.15
2022-10-11T12:52:57.082Z,16.04
2022-10-11T12:56:01.706Z,16.03
2022-10-11T12:59:06.632Z,15.83
2022-10-11T13:02:36.286Z,15.78
2022-10-11T13:05:49.714Z,15.83
2022-10-11T13:09:20.633Z,15.75
2022-10-11T13:12:23.436Z,15.72
2022-10-11T13:15:26.548Z,15.58
2022-10-11T13:18:28.444Z,15.56
2022-10-11T13:21:36.310Z,15.55
2022-10-11T13:24:40.576Z,15.70
2022-10-11T13:27:43.156Z,15.52
2022-10-11T13:30:52.191Z,15.62
2022-10-11T13:33:57.049Z,15.53
2022-10-11T13:36:59.114Z,15.49
2022-10-11T13:40:00.922Z,15.55
2022-10-11T13:43:05.820Z,15.53
2022-10-11T13:46:17.487Z,15.51
2022-10-11T13:49:27.520Z,15.37
2022-10-11T13:52:29.596Z,15.35
2022-10-11T13:55:35.754Z,15.22
2022-10-11T13:58:47.736Z,15.22
2022-10-11T14:01:58.626Z,15.18
2022-10-11T14:05:00.403Z,15.19
2022-10-11T14:08:20.837Z,15.19
2022-10-11T14:11:39.821Z,15.30
2022-10-11T14:14:42.718Z,15.19
2022-10-11T14:17:45.710Z,15.16
2022-10-11T14:20:47.477Z,15.14
2022-10-11T14:23:58.272Z,15.11
2022-10-11T14:27:01.704Z,15.10
2022-10-11T14:30:24.421Z,15.08
2022-10-11T14:33:27.698Z,15.00
2022-10-11T14:36:30.100Z,15.04
2022-10-11T14:39:33.258Z,14.98
2022-10-11T14:42:34.974Z,14.91
2022-10-11T14:45:36.794Z,14.90
2022-10-11T14:48:54.442Z,14.89
2022-10-11T14:51:58.695Z,14.85
2022-10-11T14:55:00.997Z,14.75
2022-10-11T14:58:03.775Z,14.74
2022-10-11T15:01:05.707Z,14.56
2022-10-11T15:04:07.690Z,14.53
2022-10-11T15:07:12.907Z,14.55
2022-10-11T15:10:39.284Z,14.49
2022-10-11T15:13:41.046Z,14.37
2022-10-11T15:16:43.306Z,14.31
2022-10-11T15:19:45.044Z,14.13
2022-10-11T15:22:46.928Z,14.07
2022-10-11T15:25:48.708Z,13.92
2022-10-11T15:28:51.510Z,13.78
2022-10-11T15:31:53.330Z,13.65
2022-10-11T15:34:55.263Z,13.56
2022-10-11T15:38:00.105Z,13.50
2022-10-11T15:41:02.067Z,13.34
2022-10-11T15:44:03.883Z,13.22
2022-10-11T15:47:05.988Z,13.10
2022-10-11T15:50:15.405Z,13.04
2022-10-11T15:53:19.496Z,12.97
2022-10-11T15:56:21.281Z,12.89
2022-10-11T15:59:23.088Z,12.81
2022-10-11T16:02:25.669Z,12.78
2022-10-11T16:05:28.552Z,12.73
2022-10-11T16:08:31.561Z,12.67
2022-10-11T16:11:33.505Z,12.60
2022-10-11T16:14:35.308Z,12.58
2022-10-11T16:17:37.247Z,12.51
2022-10-11T16:20:40.899Z,12.43
2022-10-11T16:23:43.308Z,12.34
2022-10-11T16:26:45.075Z,12.27
2022-10-11T16:29:46.841Z,12.18
2022-10-11T16:32:48.687Z,12.09
2022-10-11T16:35:50.755Z,12.02
2022-10-11T16:38:52.563Z,11.93
2022-10-11T16:41:54.327Z,11.86
2022-10-11T16:44:56.484Z,11.81
2022-10-11T16:47:58.594Z,11.73
2022-10-11T16:51:08.354Z,11.72
2022-10-11T16:54:10.237Z,11.60
2022-10-11T16:57:14.121Z,11.65
2022-10-11T17:00:16.490Z,11.66
2022-10-11T17:03:18.218Z,11.70
2022-10-11T17:06:20.351Z,11.71
2022-10-11T17:09:22.214Z,11.71
2022-10-11T17:12:24.675Z,11.72
2022-10-11T17:15:26.520Z,11.68
2022-10-11T17:18:28.261Z,11.62
2022-10-11T17:21:30.348Z,11.54
2022-10-11T17:24:32.102Z,11.52
2022-10-11T17:27:33.929Z,11.44
2022-10-11T17:30:35.906Z,11.34
2022-10-11T17:33:38.234Z,11.31
2022-10-11T17:36:41.083Z,11.28
2022-10-11T17:39:42.918Z,11.23
2022-10-11T17:42:45.025Z,11.17
2022-10-11T17:45:58.221Z,11.14
2022-10-11T17:49:02.121Z,11.04
2022-10-11T17:52:03.891Z,10.99
2022-10-11T17:55:05.733Z,10.95
2022-10-11T17:58:07.499Z,10.90
2022-10-11T18:01:13.387Z,10.90
2022-10-11T18:04:16.922Z,10.85
2022-10-11T18:07:18.697Z,10.83
2022-10-11T18:10:20.879Z,10.84
2022-10-11T18:13:22.841Z,10.84
2022-10-11T18:16:29.477Z,10.84
2022-10-11T18:19:34.070Z,10.81
2022-10-11T18:22:35.783Z,10.79
2022-10-11T18:25:37.566Z,10.78
2022-10-11T18:28:40.873Z,10.77
2022-10-11T18:31:42.818Z,10.73
2022-10-11T18:34:44.617Z,10.72
2022-10-11T18:37:46.687Z,10.69
2022-10-11T18:40:48.452Z,10.64
2022-10-11T18:43:53.230Z,10.69
2022-10-11T18:46:54.972Z,10.67
2022-10-11T18:49:57.041Z,10.68
2022-10-11T18:52:58.801Z,10.70
2022-10-11T18:56:05.772Z,10.76
2022-10-11T18:59:08.648Z,10.77
2022-10-11T19:02:11.980Z,10.80
2022-10-11T19:05:13.864Z,10.79
2022-10-11T19:08:15.620Z,10.77
2022-10-11T19:11:22.175Z,10.79
2022-10-11T19:14:28.303Z,10.78
2022-10-11T19:17:30.045Z,10.75
2022-10-11T19:20:35.377Z,10.78
2022-10-11T19:23:39.887Z,10.75
2022-10-11T19:26:42.467Z,10.69
2022-10-11T19:29:44.201Z,10.70
2022-10-11T19:32:45.958Z,10.69
2022-10-11T19:35:57.652Z,10.76
2022-10-11T19:38:59.959Z,10.70
2022-10-11T19:42:01.793Z,10.69
2022-10-11T19:45:03.782Z,10.67
2022-10-11T19:48:05.646Z,10.64
2022-10-11T19:51:11.792Z,10.65
2022-10-11T19:54:14.696Z,10.62
2022-10-11T19:57:16.702Z,10.63
2022-10-11T20:00:18.696Z,10.62
2022-10-11T20:03:20.445Z,10.62
2022-10-11T20:06:25.805Z,10.64
2022-10-11T20:09:29.894Z,10.59
2022-10-11T20:12:33.472Z,10.58
2022-10-11T20:15:37.465Z,10.53
2022-10-11T20:18:39.819Z,10.45
2022-10-11T20:21:42.000Z,10.45
2022-10-11T20:24:43.726Z,10.47
2022-10-11T20:27:46.556Z,10.47
2022-10-11T20:30:48.312Z,10.45
2022-10-11T20:33:50.090Z,10.42
2022-10-11T20:36:52.242Z,10.38
2022-10-11T20:39:54.944Z,10.37
2022-10-11T20:42:57.821Z,10.36
2022-10-11T20:46:13.069Z,10.37
2022-10-11T20:49:15.285Z,10.33
2022-10-11T20:52:17.120Z,10.33
2022-10-11T20:55:18.972Z,10.33
2022-10-11T20:58:21.739Z,10.33
2022-10-11T21:01:29.837Z,10.34
2022-10-11T21:04:31.599Z,10.25
2022-10-11T21:07:33.467Z,10.23
2022-10-11T21:10:35.574Z,10.17
2022-10-11T21:13:37.847Z,10.09
2022-10-11T21:16:39.783Z,10.02
2022-10-11T21:19:42.000Z,9.97
2022-10-11T21:22:44.122Z,9.94
2022-10-11T21:25:45.932Z,9.90
2022-10-11T21:28:47.780Z,9.89
2022-10-11T21:31:49.799Z,9.86
2022-10-11T21:34:51.510Z,9.84
2022-10-11T21:37:57.921Z,9.85
2022-10-11T21:41:02.021Z,9.82
2022-10-11T21:44:04.650Z,9.71
2022-10-11T21:47:07.641Z,9.70
2022-10-11T21:50:10.620Z,9.68
2022-10-11T21:53:12.325Z,9.66
2022-10-11T21:56:14.063Z,9.65
2022-10-11T21:59:15.896Z,9.63
2022-10-11T22:02:17.620Z,9.63
2022-10-11T22:05:19.368Z,9.60
2022-10-11T22:08:21.707Z,9.50
2022-10-11T22:11:23.589Z,9.45
2022-10-11T22:14:26.840Z,9.47
2022-10-11T22:17:28.581Z,9.42
2022-10-11T22:20:33.002Z,9.39
2022-10-11T22:23:34.783Z,9.29
2022-10-11T22:26:36.555Z,9.25
2022-10-11T22:29:38.375Z,9.21
2022-10-11T22:32:40.166Z,9.14
2022-10-11T22:35:41.887Z,9.09
2022-10-11T22:38:45.471Z,9.04
2022-10-11T22:41:47.591Z,8.95
2022-10-11T22:44:51.358Z,8.90
2022-10-11T22:47:53.161Z,8.87
2022-10-11T22:50:54.991Z,8.83
2022-10-11T22:53:56.733Z,8.82
2022-10-11T22:56:58.515Z,8.81
2022-10-11T23:00:00.242Z,8.83
2022-10-11T23:03:01.973Z,8.85
2022-10-11T23:06:04.032Z,8.88
2022-10-11T23:09:05.852Z,8.89
2022-10-11T23:12:07.777Z,8.88
2022-10-11T23:15:10.507Z,8.90
2022-10-11T23:18:12.758Z,8.88
2022-10-11T23:21:14.452Z,8.87
2022-10-11T23:24:16.215Z,8.89
2022-10-11T23:27:18.007Z,8.89
2022-10-11T23:30:19.742Z,8.90
2022-10-11T23:33:21.519Z,8.89
2022-10-11T23:36:25.245Z,8.93
2022-10-11T23:39:27.108Z,8.91
2022-10-11T23:42:28.833Z,8.91
2022-10-11T23:45:30.789Z,8.90
2022-10-11T23:48:32.579Z,8.90
2022-10-11T23:51:34.310Z,8.92
2022-10-11T23:54:36.001Z,8.93
2022-10-11T23:57:38.046Z,8.94
